General Aviation Weather

Text Reports

Enter one or more of the following location identifiers separated by a space:

Zip Code, Four-Character ICAO or Three-Character IATA airport codes.

METAR - Aviation Routine Weather Report
PAJC - Chignik, Alaska
Updated at 9:56 AM GMT on May 05, 2015 (1:56 AM AKDT):
METAR PAJC 050956Z AUTO 13009G14KT 8SM BKN014 BKN021 OVC029 05/02 A2985 RMK AO1 P0004
TAF - Terminal Area Forecast
PAJC - Chignik, Alaska
Updated at 9:56 AM GMT on May 05, 2015 (1:56 AM AKDT):
No TAF is currently available for this location.
Decoded:
No decoded TAF is available.
PIREP - Pilot Weather Report
PAJC - Chignik, Alaska
Updated at 9:56 AM GMT on May 05, 2015 (1:56 AM AKDT):
No PIREP is currently available for this location.
AIRMET - Airmens Meteorological Information
PAJC - Chignik, Alaska
Updated at 9:56 AM GMT on May 05, 2015 (1:56 AM AKDT):
No AIRMET is currently available for this location.
SIGMET - Significant Meteorological Information
PAJC - Chignik, Alaska
Updated at 9:56 AM GMT on May 05, 2015 (1:56 AM AKDT):
No SIGMET is currently available for this location.
NOTAM - Notice to Airmen
PAJC - Chignik, Alaska
Updated at 9:56 AM GMT on May 05, 2015 (1:56 AM AKDT):
No NOTAM is currently available for this location.
Forecast Area
PAJC - Chignik, Alaska
Updated at 9:56 AM GMT on May 05, 2015 (1:56 AM AKDT):
No NOTAM is currently available for this location.
Aviation Weather Maps